createdAt,value
2023-03-29T00:01:09.518Z,-1.60
2023-03-29T00:03:56.237Z,-1.60
2023-03-29T00:06:43.000Z,-1.60
2023-03-29T00:09:29.598Z,-1.70
2023-03-29T00:12:17.520Z,-1.80
2023-03-29T00:15:04.164Z,-1.80
2023-03-29T00:17:50.938Z,-1.90
2023-03-29T00:20:37.611Z,-1.90
2023-03-29T00:23:25.281Z,-1.90
2023-03-29T00:26:11.850Z,-2.00
2023-03-29T00:28:58.518Z,-2.10
2023-03-29T00:31:46.230Z,-1.80
2023-03-29T00:34:32.962Z,-2.00
2023-03-29T00:37:19.679Z,-2.00
2023-03-29T00:40:06.329Z,-1.90
2023-03-29T00:42:52.962Z,-2.00
2023-03-29T00:45:39.681Z,-2.00
2023-03-29T00:48:26.320Z,-2.00
2023-03-29T00:51:12.978Z,-2.00
2023-03-29T00:53:59.599Z,-2.00
2023-03-29T00:56:46.286Z,-2.00
2023-03-29T00:59:32.897Z,-2.10
2023-03-29T01:02:19.682Z,-2.10
2023-03-29T01:05:06.274Z,-2.00
2023-03-29T01:07:52.924Z,-2.00
2023-03-29T01:10:39.524Z,-2.00
2023-03-29T01:13:26.375Z,-2.00
2023-03-29T01:16:12.985Z,-2.00
2023-03-29T01:18:59.682Z,-2.10
2023-03-29T01:21:46.267Z,-2.00
2023-03-29T01:24:32.887Z,-2.00
2023-03-29T01:27:19.853Z,-1.90
2023-03-29T01:30:06.567Z,-2.00
2023-03-29T01:32:53.243Z,-2.00
2023-03-29T01:35:40.012Z,-1.90
2023-03-29T01:38:26.725Z,-1.90
2023-03-29T01:41:13.383Z,-1.90
2023-03-29T01:43:59.980Z,-1.90
2023-03-29T01:46:46.651Z,-1.90
2023-03-29T01:49:33.291Z,-1.90
2023-03-29T01:52:20.010Z,-1.80
2023-03-29T01:55:06.640Z,-1.70
2023-03-29T01:57:53.296Z,-1.70
2023-03-29T02:00:39.863Z,-1.70
2023-03-29T02:03:26.621Z,-1.70
2023-03-29T02:06:13.526Z,-1.70
2023-03-29T02:09:00.181Z,-1.60
2023-03-29T02:11:46.708Z,-1.60
2023-03-29T02:14:33.526Z,-1.50
2023-03-29T02:17:20.182Z,-1.50
2023-03-29T02:20:06.803Z,-1.50
2023-03-29T02:22:54.332Z,-1.60
2023-03-29T02:25:41.051Z,-1.50
2023-03-29T02:28:27.622Z,-1.50
2023-03-29T02:31:14.335Z,-1.50
2023-03-29T02:34:01.865Z,-1.50
2023-03-29T02:36:48.606Z,-1.50
2023-03-29T02:39:35.202Z,-1.40
2023-03-29T02:42:22.009Z,-1.50
2023-03-29T02:45:08.881Z,-1.50
2023-03-29T02:47:55.564Z,-1.50
2023-03-29T02:50:43.363Z,-1.40
2023-03-29T02:53:30.054Z,-1.40
2023-03-29T02:56:16.804Z,-1.40
2023-03-29T02:59:03.521Z,-1.30
2023-03-29T03:01:50.204Z,-1.20
2023-03-29T03:04:36.819Z,-1.20
2023-03-29T03:07:23.610Z,-1.20
2023-03-29T03:10:10.198Z,-1.20
2023-03-29T03:12:56.965Z,-1.20
2023-03-29T03:15:43.612Z,-1.20
2023-03-29T03:18:30.276Z,-1.20
2023-03-29T03:21:16.881Z,-1.20
2023-03-29T03:24:03.638Z,-1.20
2023-03-29T03:26:50.205Z,-1.20
2023-03-29T03:29:36.919Z,-1.20
2023-03-29T03:32:23.835Z,-1.00
2023-03-29T03:35:12.446Z,-1.10
2023-03-29T03:37:59.074Z,-1.10
2023-03-29T03:40:45.877Z,-1.10
2023-03-29T03:43:32.529Z,-1.00
2023-03-29T03:46:20.220Z,-1.00
2023-03-29T03:49:06.996Z,-1.00
2023-03-29T03:51:54.762Z,-0.90
2023-03-29T03:54:41.398Z,-1.00
2023-03-29T03:57:28.039Z,-1.00
2023-03-29T04:00:14.614Z,-1.00
2023-03-29T04:03:01.365Z,-0.90
2023-03-29T04:05:48.355Z,-0.90
2023-03-29T04:08:35.004Z,-0.90
2023-03-29T04:11:21.647Z,-0.90
2023-03-29T04:14:08.283Z,-0.80
2023-03-29T04:16:55.157Z,-0.80
2023-03-29T04:19:41.792Z,-0.70
2023-03-29T04:22:29.483Z,-0.70
2023-03-29T04:25:16.079Z,-0.70
2023-03-29T04:28:04.382Z,-0.70
2023-03-29T04:30:51.044Z,-0.70
2023-03-29T04:33:38.130Z,-0.70
2023-03-29T04:36:24.762Z,-0.70
2023-03-29T04:39:11.482Z,-0.70
2023-03-29T04:41:57.997Z,-0.60
2023-03-29T04:44:45.126Z,-0.60
2023-03-29T04:47:31.803Z,-0.60
2023-03-29T04:50:18.340Z,-0.60
2023-03-29T04:53:05.162Z,-0.60
2023-03-29T04:55:51.724Z,-0.50
2023-03-29T04:58:38.280Z,-0.50
2023-03-29T05:01:25.908Z,-0.50
2023-03-29T05:04:12.979Z,-0.50
2023-03-29T05:06:59.642Z,-0.40
2023-03-29T05:09:46.368Z,-0.40
2023-03-29T05:12:33.008Z,-0.40
2023-03-29T05:15:20.761Z,-0.40
2023-03-29T05:18:07.604Z,-0.40
2023-03-29T05:20:55.398Z,-0.30
2023-03-29T05:23:42.039Z,-0.30
2023-03-29T05:26:28.839Z,-0.30
2023-03-29T05:29:15.805Z,-0.30
2023-03-29T05:32:02.492Z,-0.30
2023-03-29T05:34:49.160Z,-0.20
2023-03-29T05:37:36.762Z,-0.20
2023-03-29T05:40:23.478Z,-0.20
2023-03-29T05:43:10.061Z,-0.20
2023-03-29T05:45:56.953Z,-0.20
2023-03-29T05:48:43.644Z,-0.20
2023-03-29T05:51:32.226Z,-0.20
2023-03-29T05:54:18.839Z,-0.20
2023-03-29T05:57:05.579Z,-0.20
2023-03-29T05:59:52.364Z,-0.10
2023-03-29T06:02:39.032Z,-0.10
2023-03-29T06:05:25.805Z,-0.10
2023-03-29T06:08:12.350Z,-0.10
2023-03-29T06:10:59.065Z,-0.10
2023-03-29T06:13:46.041Z,0.00
2023-03-29T06:16:32.723Z,0.00
2023-03-29T06:19:20.517Z,0.00
2023-03-29T06:22:07.158Z,0.10
2023-03-29T06:24:53.720Z,0.10
2023-03-29T06:27:40.315Z,0.10
2023-03-29T06:30:27.070Z,0.10
2023-03-29T06:33:14.710Z,0.10
2023-03-29T06:36:01.408Z,0.20
2023-03-29T06:38:48.032Z,0.10
2023-03-29T06:41:34.682Z,0.20
2023-03-29T06:44:21.322Z,0.30
2023-03-29T06:47:09.634Z,0.30
2023-03-29T06:49:56.443Z,0.40
2023-03-29T06:52:43.168Z,0.50
2023-03-29T06:55:29.753Z,0.70
2023-03-29T06:58:16.445Z,0.80
2023-03-29T07:01:03.435Z,0.90
2023-03-29T07:03:50.351Z,0.90
2023-03-29T07:06:36.919Z,0.90
2023-03-29T07:09:24.680Z,0.90
2023-03-29T07:12:11.334Z,1.00
2023-03-29T07:14:58.196Z,0.90
2023-03-29T07:17:45.091Z,1.00
2023-03-29T07:20:31.803Z,1.00
2023-03-29T07:23:19.390Z,1.10
2023-03-29T07:26:09.556Z,1.10
2023-03-29T07:28:56.214Z,1.10
2023-03-29T07:31:42.808Z,1.20
2023-03-29T07:34:29.326Z,1.20
2023-03-29T07:37:16.037Z,1.20
2023-03-29T07:40:02.581Z,1.20
2023-03-29T07:42:49.386Z,1.20
2023-03-29T07:45:37.209Z,1.20
2023-03-29T07:48:23.910Z,1.30
2023-03-29T07:51:10.587Z,1.40
2023-03-29T07:53:57.247Z,1.40
2023-03-29T07:56:45.031Z,1.50
2023-03-29T07:59:31.651Z,1.50
2023-03-29T08:02:18.364Z,1.60
2023-03-29T08:05:05.034Z,1.60
2023-03-29T08:07:51.717Z,1.70
2023-03-29T08:10:38.374Z,1.70
2023-03-29T08:13:25.081Z,1.70
2023-03-29T08:16:12.701Z,1.70
2023-03-29T08:18:59.393Z,1.60
2023-03-29T08:21:46.221Z,1.70
2023-03-29T08:24:32.770Z,1.70
2023-03-29T08:27:19.432Z,1.90
2023-03-29T08:30:07.397Z,2.00
2023-03-29T08:32:55.263Z,2.20
2023-03-29T08:35:42.250Z,2.30
2023-03-29T08:38:28.874Z,2.50
2023-03-29T08:41:15.564Z,2.60
2023-03-29T08:44:02.127Z,2.80
2023-03-29T08:46:48.837Z,2.90
2023-03-29T08:49:35.654Z,3.00
2023-03-29T08:52:22.302Z,3.10
2023-03-29T08:55:08.919Z,3.20
2023-03-29T08:57:55.562Z,3.30
2023-03-29T09:00:42.129Z,3.30
2023-03-29T09:03:28.992Z,3.40
2023-03-29T09:06:15.657Z,3.40
2023-03-29T09:09:02.452Z,3.50
2023-03-29T09:11:49.041Z,3.50
2023-03-29T09:14:35.647Z,3.60
2023-03-29T09:17:22.231Z,3.60
2023-03-29T09:20:08.890Z,3.70
2023-03-29T09:22:55.486Z,3.70
2023-03-29T09:25:52.446Z,3.70
2023-03-29T09:28:39.792Z,3.80
2023-03-29T09:31:26.412Z,3.80
2023-03-29T09:34:14.541Z,3.90
2023-03-29T09:37:02.358Z,4.00
2023-03-29T09:39:48.920Z,4.00
2023-03-29T09:42:35.680Z,4.10
2023-03-29T09:45:22.229Z,4.10
2023-03-29T09:48:08.771Z,4.30
2023-03-29T09:50:56.857Z,4.40
2023-03-29T09:53:43.509Z,4.60
2023-03-29T09:56:30.115Z,4.90
2023-03-29T09:59:17.130Z,5.00
2023-03-29T10:02:04.851Z,5.10
2023-03-29T10:04:51.430Z,5.20
2023-03-29T10:07:38.024Z,5.20
2023-03-29T10:10:24.571Z,5.30
2023-03-29T10:13:11.105Z,5.40
2023-03-29T10:15:57.796Z,5.50
2023-03-29T10:18:44.339Z,5.70
2023-03-29T10:21:31.074Z,5.90
2023-03-29T10:24:17.760Z,6.00
2023-03-29T10:27:04.310Z,6.20
2023-03-29T10:29:50.826Z,6.30
2023-03-29T10:32:38.546Z,6.30
2023-03-29T10:35:25.092Z,6.50
2023-03-29T10:38:11.773Z,6.60
2023-03-29T10:40:58.330Z,6.70
2023-03-29T10:43:44.860Z,6.70
2023-03-29T10:46:31.485Z,6.80
2023-03-29T10:49:18.183Z,6.90
2023-03-29T10:52:04.764Z,6.90
2023-03-29T10:54:51.401Z,6.90
2023-03-29T10:57:38.047Z,6.90
2023-03-29T11:00:24.597Z,6.80
2023-03-29T11:03:13.113Z,6.80
2023-03-29T11:06:01.855Z,6.80
2023-03-29T11:08:49.398Z,6.80
2023-03-29T11:11:36.092Z,6.80
2023-03-29T11:14:22.718Z,6.90
2023-03-29T11:17:10.521Z,6.90
2023-03-29T11:19:57.130Z,7.00
2023-03-29T11:22:44.688Z,7.00
2023-03-29T11:25:32.384Z,7.00
2023-03-29T11:28:19.076Z,7.10
2023-03-29T11:31:06.269Z,7.10
2023-03-29T11:33:53.426Z,7.20
2023-03-29T11:36:40.280Z,7.30
2023-03-29T11:39:26.940Z,7.40
2023-03-29T11:42:13.560Z,7.50
2023-03-29T11:45:00.148Z,7.60
2023-03-29T11:47:46.940Z,7.70
2023-03-29T11:50:35.381Z,7.80
2023-03-29T11:53:23.309Z,7.90
2023-03-29T11:56:09.968Z,7.90
2023-03-29T11:58:57.559Z,8.00
2023-03-29T12:01:44.261Z,8.10
2023-03-29T12:04:30.896Z,8.10
2023-03-29T12:07:17.516Z,8.20
2023-03-29T12:10:04.153Z,8.30
2023-03-29T12:12:50.756Z,8.50
2023-03-29T12:15:37.298Z,8.50
2023-03-29T12:18:25.319Z,8.70
2023-03-29T12:21:12.605Z,8.90
2023-03-29T12:23:59.107Z,9.00
2023-03-29T12:26:45.721Z,9.10
2023-03-29T12:29:32.282Z,9.30
2023-03-29T12:32:18.891Z,9.40
2023-03-29T12:35:05.567Z,9.50
2023-03-29T12:37:52.169Z,9.60
2023-03-29T12:40:38.772Z,9.70
2023-03-29T12:43:25.474Z,9.80
2023-03-29T12:46:12.076Z,9.90
2023-03-29T12:48:59.032Z,9.80
2023-03-29T12:51:46.044Z,9.80
2023-03-29T12:54:32.933Z,9.80
2023-03-29T12:57:19.690Z,9.80
2023-03-29T13:00:07.386Z,9.90
2023-03-29T13:02:54.525Z,10.00
2023-03-29T13:05:41.193Z,10.10
2023-03-29T13:08:28.873Z,10.20
2023-03-29T13:11:15.411Z,10.30
2023-03-29T13:14:02.208Z,10.40
2023-03-29T13:16:48.836Z,10.50
2023-03-29T13:19:35.402Z,10.40
2023-03-29T13:22:22.035Z,10.40
2023-03-29T13:25:08.711Z,10.40
2023-03-29T13:27:55.438Z,10.40
2023-03-29T13:30:42.041Z,10.50
2023-03-29T13:33:28.657Z,10.60
2023-03-29T13:36:15.589Z,10.60
2023-03-29T13:39:02.235Z,10.70
2023-03-29T13:41:48.852Z,10.80
2023-03-29T13:44:35.412Z,10.90
2023-03-29T13:47:22.045Z,11.10
2023-03-29T13:50:08.679Z,11.30
2023-03-29T13:52:55.402Z,11.40
2023-03-29T13:55:42.042Z,11.30
2023-03-29T13:58:28.681Z,11.20
2023-03-29T14:01:15.369Z,11.30
2023-03-29T14:04:02.119Z,11.20
2023-03-29T14:06:48.796Z,11.10
2023-03-29T14:09:35.480Z,11.00
2023-03-29T14:12:22.201Z,10.90
2023-03-29T14:15:08.788Z,10.80
2023-03-29T14:18:00.351Z,10.70
2023-03-29T14:20:47.482Z,10.50
2023-03-29T14:23:34.119Z,10.30
2023-03-29T14:26:20.742Z,10.30
2023-03-29T14:29:07.437Z,10.30
2023-03-29T14:31:54.162Z,10.30
2023-03-29T14:34:40.771Z,10.30
2023-03-29T14:37:28.410Z,10.20
2023-03-29T14:40:15.117Z,10.20
2023-03-29T14:43:01.834Z,10.20
2023-03-29T14:45:48.484Z,10.20
2023-03-29T14:48:35.242Z,10.20
2023-03-29T14:51:21.884Z,10.30
2023-03-29T14:54:08.602Z,10.20
2023-03-29T14:56:55.707Z,10.30
2023-03-29T14:59:42.327Z,10.30
2023-03-29T15:02:28.987Z,10.20
2023-03-29T15:05:15.845Z,10.20
2023-03-29T15:08:02.430Z,10.20
2023-03-29T15:10:49.050Z,10.10
2023-03-29T15:13:35.559Z,10.10
2023-03-29T15:16:22.217Z,10.10
2023-03-29T15:19:09.812Z,10.10
2023-03-29T15:21:56.387Z,10.10
2023-03-29T15:24:43.037Z,10.10
2023-03-29T15:27:29.580Z,10.00
2023-03-29T15:30:16.152Z,9.90
2023-03-29T15:33:02.812Z,9.90
2023-03-29T15:35:49.452Z,9.80
2023-03-29T15:38:43.304Z,9.70
2023-03-29T15:41:31.383Z,9.60
2023-03-29T15:44:17.952Z,9.60
2023-03-29T15:47:04.797Z,9.60
2023-03-29T15:49:51.656Z,9.60
2023-03-29T15:52:38.392Z,9.60
2023-03-29T15:55:25.002Z,9.60
2023-03-29T15:58:11.770Z,9.60
2023-03-29T16:00:58.616Z,9.50
2023-03-29T16:03:47.886Z,9.60
2023-03-29T16:06:34.787Z,9.60
2023-03-29T16:09:21.637Z,9.60
2023-03-29T16:12:08.280Z,9.70
2023-03-29T16:14:54.922Z,9.70
2023-03-29T16:17:41.500Z,9.60
2023-03-29T16:20:28.218Z,9.60
2023-03-29T16:23:14.839Z,9.60
2023-03-29T16:26:01.695Z,9.50
2023-03-29T16:28:48.449Z,9.40
2023-03-29T16:31:35.108Z,9.30
2023-03-29T16:34:21.851Z,9.30
2023-03-29T16:37:08.471Z,9.20
2023-03-29T16:39:55.245Z,9.10
2023-03-29T16:42:41.883Z,9.10
2023-03-29T16:45:28.545Z,9.00
2023-03-29T16:48:16.195Z,8.90
2023-03-29T16:51:02.924Z,8.80
2023-03-29T16:53:49.513Z,8.80
2023-03-29T16:56:36.278Z,8.70
2023-03-29T16:59:22.924Z,8.60
2023-03-29T17:02:09.486Z,8.50
2023-03-29T17:04:56.191Z,8.40
2023-03-29T17:07:42.755Z,8.40
2023-03-29T17:10:29.476Z,8.30
2023-03-29T17:13:16.039Z,8.30
2023-03-29T17:16:02.816Z,8.20
2023-03-29T17:18:49.769Z,8.10
2023-03-29T17:21:36.439Z,8.10
2023-03-29T17:24:23.001Z,8.00
2023-03-29T17:27:09.637Z,7.90
2023-03-29T17:29:56.361Z,7.90
2023-03-29T17:32:43.121Z,7.80
2023-03-29T17:35:29.720Z,7.80
2023-03-29T17:38:16.442Z,7.70
2023-03-29T17:41:03.058Z,7.70
2023-03-29T17:43:49.797Z,7.60
2023-03-29T17:46:36.466Z,7.50
2023-03-29T17:49:23.165Z,7.50
2023-03-29T17:52:10.017Z,7.40
2023-03-29T17:54:56.726Z,7.40
2023-03-29T17:57:43.419Z,7.40
2023-03-29T18:00:33.538Z,7.30
2023-03-29T18:03:20.704Z,7.30
2023-03-29T18:06:07.592Z,7.30
2023-03-29T18:08:54.518Z,7.20
2023-03-29T18:11:41.319Z,7.20
2023-03-29T18:14:28.197Z,7.10
2023-03-29T18:17:16.302Z,7.10
2023-03-29T18:20:03.118Z,7.10
2023-03-29T18:22:50.211Z,7.10
2023-03-29T18:25:37.082Z,7.00
2023-03-29T18:28:23.782Z,7.00
2023-03-29T18:31:10.629Z,7.00
2023-03-29T18:33:57.473Z,7.00
2023-03-29T18:36:44.362Z,7.00
2023-03-29T18:39:31.574Z,7.00
2023-03-29T18:42:19.320Z,6.90
2023-03-29T18:45:05.898Z,6.90
2023-03-29T18:47:52.817Z,6.90
2023-03-29T18:50:39.914Z,6.80
2023-03-29T18:53:27.954Z,6.80
2023-03-29T18:56:14.766Z,6.80
2023-03-29T18:59:01.649Z,6.80
2023-03-29T19:01:48.395Z,6.70
2023-03-29T19:04:35.019Z,6.70
2023-03-29T19:07:21.731Z,6.70
2023-03-29T19:10:08.467Z,6.70
2023-03-29T19:12:55.324Z,6.70
2023-03-29T19:15:42.086Z,6.60
2023-03-29T19:18:28.854Z,6.70
2023-03-29T19:21:15.645Z,6.60
2023-03-29T19:24:02.445Z,6.60
2023-03-29T19:26:49.076Z,6.60
2023-03-29T19:29:35.726Z,6.60
2023-03-29T19:32:22.446Z,6.60
2023-03-29T19:35:09.185Z,6.50
2023-03-29T19:37:56.043Z,6.50
2023-03-29T19:40:44.199Z,6.50
2023-03-29T19:43:30.767Z,6.40
2023-03-29T19:46:17.512Z,6.40
2023-03-29T19:49:05.556Z,6.30
2023-03-29T19:51:52.756Z,6.30
2023-03-29T19:54:39.320Z,6.20
2023-03-29T19:57:25.980Z,6.10
2023-03-29T20:00:12.593Z,6.10
2023-03-29T20:02:59.384Z,6.00
2023-03-29T20:05:46.114Z,6.00
2023-03-29T20:08:32.987Z,6.00
2023-03-29T20:11:19.642Z,6.00
2023-03-29T20:14:06.360Z,6.00
2023-03-29T20:16:53.139Z,6.00
2023-03-29T20:19:39.878Z,6.00
2023-03-29T20:22:26.598Z,5.90
2023-03-29T20:25:13.317Z,5.80
2023-03-29T20:27:59.965Z,5.80
2023-03-29T20:30:46.517Z,5.80
2023-03-29T20:33:33.163Z,5.80
2023-03-29T20:36:20.070Z,5.80
2023-03-29T20:39:06.848Z,5.80
2023-03-29T20:41:53.479Z,5.80
2023-03-29T20:44:40.138Z,5.70
2023-03-29T20:47:26.679Z,5.70
2023-03-29T20:50:13.349Z,5.70
2023-03-29T20:52:59.886Z,5.70
2023-03-29T20:55:46.519Z,5.70
2023-03-29T20:58:33.152Z,5.70
2023-03-29T21:01:19.774Z,5.60
2023-03-29T21:04:06.359Z,5.60
2023-03-29T21:06:52.949Z,5.60
2023-03-29T21:09:39.559Z,5.60
2023-03-29T21:12:26.201Z,5.50
2023-03-29T21:15:12.922Z,5.60
2023-03-29T21:17:59.782Z,5.60
2023-03-29T21:20:46.555Z,5.50
2023-03-29T21:23:33.398Z,5.50
2023-03-29T21:26:20.039Z,5.50
2023-03-29T21:29:06.737Z,5.40
2023-03-29T21:31:53.908Z,5.50
2023-03-29T21:34:40.710Z,5.50
2023-03-29T21:37:27.638Z,5.50
2023-03-29T21:40:14.270Z,5.40
2023-03-29T21:43:00.921Z,5.30
2023-03-29T21:45:53.009Z,5.30
2023-03-29T21:48:39.534Z,5.40
2023-03-29T21:51:26.228Z,5.40
2023-03-29T21:54:12.793Z,5.50
2023-03-29T21:57:01.063Z,5.60
2023-03-29T21:59:47.719Z,5.60
2023-03-29T22:02:34.657Z,5.60
2023-03-29T22:05:21.404Z,5.60
2023-03-29T22:08:08.126Z,5.60
2023-03-29T22:10:54.691Z,5.60
2023-03-29T22:13:41.354Z,5.60
2023-03-29T22:16:28.191Z,5.60
2023-03-29T22:19:14.866Z,5.60
2023-03-29T22:22:01.663Z,5.60
2023-03-29T22:24:48.379Z,5.60
2023-03-29T22:27:35.000Z,5.60
2023-03-29T22:30:21.609Z,5.60
2023-03-29T22:33:08.136Z,5.60
2023-03-29T22:35:54.880Z,5.60
2023-03-29T22:38:41.721Z,5.60
2023-03-29T22:41:29.492Z,5.60
2023-03-29T22:44:16.121Z,5.60
2023-03-29T22:47:02.842Z,5.60
2023-03-29T22:49:49.432Z,5.60
2023-03-29T22:52:36.137Z,5.60
2023-03-29T22:55:22.840Z,5.60
2023-03-29T22:58:09.557Z,5.60
2023-03-29T23:00:56.199Z,5.50
2023-03-29T23:03:42.845Z,5.60
2023-03-29T23:06:29.488Z,5.50
2023-03-29T23:09:16.576Z,5.50
2023-03-29T23:12:03.398Z,5.50
2023-03-29T23:14:50.121Z,5.50
2023-03-29T23:17:37.079Z,5.50
2023-03-29T23:20:23.801Z,5.50
2023-03-29T23:23:10.600Z,5.50
2023-03-29T23:25:57.270Z,5.50
2023-03-29T23:28:43.956Z,5.50
2023-03-29T23:31:30.740Z,5.50
2023-03-29T23:34:18.454Z,5.50
2023-03-29T23:37:05.159Z,5.50
2023-03-29T23:39:52.136Z,5.40
2023-03-29T23:42:38.769Z,5.40
2023-03-29T23:45:25.398Z,5.40
2023-03-29T23:48:12.206Z,5.40
2023-03-29T23:50:58.765Z,5.40
2023-03-29T23:53:45.528Z,5.40
2023-03-29T23:56:32.135Z,5.40
2023-03-29T23:59:18.766Z,5.40
